createdAt,value
2019-04-04T04:48:25.981Z,1215
2019-04-04T04:51:28.104Z,5608
2019-04-04T04:56:27.107Z,5608
2019-04-04T04:56:32.102Z,9399
2019-04-04T05:01:31.207Z,9917
2019-04-04T05:06:31.175Z,10954
2019-04-04T05:11:30.082Z,12491
2019-04-04T05:16:29.850Z,13847
2019-04-04T05:21:25.067Z,16082
2019-04-04T05:26:24.003Z,15839
2019-04-04T05:26:26.006Z,15839
2019-04-04T05:31:23.126Z,15839
2019-04-04T05:36:22.827Z,16267
2019-04-04T05:41:22.394Z,16058
2019-04-04T05:46:21.507Z,16917
2019-04-04T05:51:21.814Z,16551
2019-04-04T05:56:20.550Z,16877
2019-04-04T06:01:20.274Z,15569
2019-04-04T06:06:19.960Z,16614
2019-04-04T06:11:21.608Z,16788
2019-04-04T06:16:18.503Z,17060
2019-04-04T06:21:18.670Z,16105
2019-04-04T06:21:23.302Z,18677
2019-04-04T06:26:22.728Z,19702
2019-04-04T06:31:17.576Z,21847
2019-04-04T06:36:18.214Z,21847
2019-04-04T06:41:16.246Z,20295
2019-04-04T06:46:18.348Z,18532
2019-04-04T06:51:15.273Z,20419
2019-04-04T06:56:14.579Z,21273
2019-04-04T07:01:14.310Z,20825
2019-04-04T07:01:21.824Z,18057
2019-04-04T07:06:18.899Z,18612
2019-04-04T07:11:21.328Z,19593
2019-04-04T07:16:12.432Z,21707
2019-04-04T07:21:12.467Z,21707
2019-04-04T07:26:14.686Z,21563
2019-04-04T07:31:11.807Z,20414
2019-04-04T07:36:10.356Z,19487
2019-04-04T07:41:10.082Z,20765
2019-04-04T07:46:15.946Z,20089
2019-04-04T07:46:16.497Z,22230
2019-04-04T07:51:14.408Z,20380
2019-04-04T07:56:14.217Z,20410
2019-04-04T08:01:12.740Z,20598
2019-04-04T08:06:07.938Z,23883
2019-04-04T08:11:06.586Z,23883
2019-04-04T08:16:06.411Z,23689
2019-04-04T08:21:06.177Z,23547
2019-04-04T08:26:05.974Z,25207
2019-04-04T08:31:05.491Z,24775
2019-04-04T08:36:06.074Z,24392
2019-04-04T08:41:04.408Z,25912
2019-04-04T08:46:04.584Z,26713
2019-04-04T08:46:08.670Z,23674
2019-04-04T08:51:03.246Z,27360
2019-04-04T08:56:02.210Z,27360
2019-04-04T09:01:01.326Z,27672
2019-04-04T09:06:01.020Z,26153
2019-04-04T09:11:00.730Z,26568
2019-04-04T09:15:59.947Z,27345
2019-04-04T09:20:59.048Z,26021
2019-04-04T09:26:05.213Z,26503
2019-04-04T09:30:58.274Z,24738
2019-04-04T09:35:57.994Z,26199
2019-04-04T09:36:03.054Z,28683
2019-04-04T09:41:02.877Z,29226
2019-04-04T09:46:01.771Z,29541
2019-04-04T09:51:01.444Z,29969
2019-04-04T09:56:01.552Z,29537
2019-04-04T10:01:00.444Z,30181
2019-04-04T10:06:00.145Z,29606
2019-04-04T10:10:58.964Z,29104
2019-04-04T10:15:58.726Z,30335
2019-04-04T10:21:10.768Z,30648
2019-04-04T10:25:58.250Z,29763
2019-04-04T10:30:57.723Z,28328
2019-04-04T10:35:56.479Z,26675
2019-04-04T10:40:56.119Z,28118
2019-04-04T10:45:56.064Z,26367
2019-04-04T10:50:50.479Z,22521
2019-04-04T10:55:50.045Z,22521
2019-04-04T11:00:48.569Z,22585
2019-04-04T11:05:48.466Z,22049
2019-04-04T11:10:47.713Z,23705
2019-04-04T11:10:53.115Z,20697
2019-04-04T11:15:52.341Z,22410
2019-04-04T11:20:51.216Z,23118
2019-04-04T11:25:52.261Z,24991
2019-04-04T11:30:51.026Z,26547
2019-04-04T11:35:50.472Z,27737
2019-04-04T11:40:49.936Z,27983
2019-04-04T11:45:49.316Z,26747
2019-04-04T11:50:49.592Z,27206
2019-04-04T11:55:48.135Z,27273
2019-04-04T12:00:47.123Z,26970
2019-04-04T12:05:46.684Z,26575
2019-04-04T12:15:45.989Z,25380
2019-04-04T12:20:45.726Z,24512
2019-04-04T12:25:54.425Z,24076
2019-04-04T12:30:47.668Z,25570
2019-04-04T12:35:43.310Z,28613
2019-04-04T12:40:49.020Z,30180
2019-04-04T12:45:43.855Z,30180
2019-04-04T12:50:44.146Z,30148
2019-04-04T12:55:44.827Z,31007
2019-04-04T12:55:53.867Z,33585
2019-04-04T13:00:51.865Z,32791
2019-04-04T13:05:46.453Z,32838
2019-04-04T13:10:45.324Z,33479
2019-04-04T13:15:44.847Z,32584
2019-04-04T13:20:45.107Z,31664
2019-04-04T13:25:40.930Z,30295
2019-04-04T13:30:41.816Z,30298
2019-04-04T13:35:40.642Z,30479
2019-04-04T13:40:45.542Z,30363
2019-04-04T13:45:43.655Z,29779
2019-04-04T13:50:41.156Z,30270
2019-04-04T13:55:39.361Z,31061
2019-04-04T14:00:40.177Z,30292
2019-04-04T14:05:43.144Z,28670
2019-04-04T14:10:57.807Z,27597
2019-04-04T14:15:41.912Z,26578
2019-04-04T14:17:27.592Z,29066
2019-04-04T14:22:31.978Z,29066
2019-04-04T14:22:37.883Z,26088
2019-04-04T14:27:27.319Z,26278
2019-04-04T14:32:30.385Z,27196
2019-04-04T14:37:35.118Z,25390
2019-04-04T14:42:49.215Z,26205
2019-04-04T14:47:33.359Z,25135
2019-04-04T14:52:24.172Z,20837
2019-04-04T14:57:18.887Z,20837
2019-04-04T14:57:22.197Z,22561
2019-04-04T15:02:22.294Z,23337
2019-04-04T15:07:27.585Z,19702
2019-04-04T15:12:33.349Z,20255
2019-04-04T15:17:30.799Z,20255
2019-04-04T15:22:49.076Z,19045
2019-04-04T15:25:15.683Z,19045
2019-04-04T15:27:15.785Z,18942
2019-04-04T15:32:16.088Z,18519
2019-04-04T15:37:14.923Z,19226
2019-04-04T15:42:13.959Z,19823
2019-04-04T15:42:18.971Z,16975
2019-04-04T15:47:19.082Z,18197
2019-04-04T15:52:18.054Z,18532
2019-04-04T15:57:17.200Z,18368
2019-04-04T16:02:17.018Z,17181
2019-04-04T16:07:11.943Z,14832
2019-04-04T16:12:10.797Z,14832
2019-04-04T16:17:10.895Z,14848
2019-04-04T16:17:15.904Z,17755
2019-04-04T16:22:09.907Z,15107
2019-04-04T16:27:09.954Z,15107
2019-04-04T16:27:10.975Z,14848
2019-04-04T16:32:10.859Z,13887
2019-04-04T16:37:09.881Z,12624
2019-04-04T16:42:09.812Z,13964
2019-04-04T16:47:08.882Z,13498
2019-04-04T16:52:08.760Z,12976
2019-04-04T16:57:07.922Z,12327
2019-04-04T17:02:06.772Z,11563
2019-04-04T17:07:06.622Z,10837
2019-04-04T17:12:14.595Z,10014
2019-04-04T17:17:05.559Z,8619
2019-04-04T17:22:05.828Z,7583
2019-04-04T17:27:04.567Z,6551
2019-04-04T17:32:03.390Z,2184
2019-04-04T17:37:02.420Z,2184
2019-04-04T17:42:02.347Z,3211
2019-04-04T17:47:06.614Z,837
